createdAt,value
2022-12-04T00:01:46.544Z,90.46
2022-12-04T00:06:58.616Z,90.30
2022-12-04T00:12:02.999Z,89.97
2022-12-04T00:17:07.043Z,89.96
2022-12-04T00:22:12.432Z,90.64
2022-12-04T00:27:16.381Z,90.50
2022-12-04T00:32:20.488Z,90.71
2022-12-04T00:37:25.791Z,88.45
2022-12-04T00:42:29.774Z,89.22
2022-12-04T00:47:34.232Z,89.60
2022-12-04T00:52:39.612Z,89.38
2022-12-04T00:57:43.594Z,89.38
2022-12-04T01:02:48.548Z,90.91
2022-12-04T01:07:55.104Z,90.89
2022-12-04T01:12:59.137Z,90.70
2022-12-04T01:18:03.457Z,91.28
2022-12-04T01:23:08.815Z,92.06
2022-12-04T01:28:13.117Z,92.73
2022-12-04T01:33:17.258Z,93.68
2022-12-04T01:38:22.777Z,94.24
2022-12-04T01:43:28.232Z,94.38
2022-12-04T01:48:34.806Z,95.31
2022-12-04T01:53:43.113Z,94.36
2022-12-04T01:58:53.660Z,94.84
2022-12-04T02:03:58.836Z,97.00
2022-12-04T02:09:05.389Z,97.77
2022-12-04T02:14:23.240Z,95.20
2022-12-04T02:20:01.785Z,96.41
2022-12-04T02:25:14.029Z,95.76
2022-12-04T02:30:19.736Z,94.37
2022-12-04T02:35:28.218Z,94.07
2022-12-04T02:40:40.856Z,94.70
2022-12-04T02:45:50.204Z,95.07
2022-12-04T02:50:57.203Z,95.17
2022-12-04T02:56:05.720Z,93.90
2022-12-04T03:01:23.947Z,94.67
2022-12-04T03:06:32.647Z,94.68
2022-12-04T03:11:39.691Z,95.58
2022-12-04T03:16:47.338Z,96.00
2022-12-04T03:21:55.419Z,94.76
2022-12-04T03:27:04.972Z,94.25
2022-12-04T03:32:14.628Z,94.20
2022-12-04T03:37:23.717Z,92.67
2022-12-04T03:42:33.462Z,92.99
2022-12-04T03:47:44.354Z,93.61
2022-12-04T03:52:54.288Z,92.79
2022-12-04T03:58:05.274Z,91.75
2022-12-04T04:03:15.813Z,92.28
2022-12-04T04:08:31.429Z,91.97
2022-12-04T04:14:01.149Z,91.57
2022-12-04T04:19:26.119Z,91.91
2022-12-04T04:24:39.971Z,91.16
2022-12-04T04:29:52.289Z,90.23
2022-12-04T04:35:07.037Z,90.16
2022-12-04T04:40:22.593Z,89.75
2022-12-04T04:45:31.543Z,90.25
2022-12-04T04:50:38.841Z,91.32
2022-12-04T04:55:44.311Z,90.29
2022-12-04T05:01:00.162Z,90.85
2022-12-04T05:06:06.360Z,90.55
2022-12-04T05:11:14.118Z,89.67
2022-12-04T05:16:19.027Z,89.91
2022-12-04T05:21:24.733Z,90.39
2022-12-04T05:26:29.596Z,91.08
2022-12-04T05:31:33.953Z,91.32
2022-12-04T05:36:39.408Z,89.46
2022-12-04T05:41:43.388Z,88.03
2022-12-04T05:46:47.955Z,85.86
2022-12-04T05:51:54.007Z,84.47
2022-12-04T05:56:58.762Z,84.77
2022-12-04T06:02:02.866Z,84.62
2022-12-04T06:07:11.334Z,84.90
2022-12-04T06:12:15.770Z,85.29
2022-12-04T06:17:20.723Z,85.93
2022-12-04T06:22:26.167Z,84.61
2022-12-04T06:27:30.704Z,84.87
2022-12-04T06:32:35.194Z,84.04
2022-12-04T06:37:40.547Z,84.27
2022-12-04T06:42:44.768Z,83.51
2022-12-04T06:47:49.480Z,83.08
2022-12-04T06:52:54.907Z,81.59
2022-12-04T06:57:59.342Z,80.16
2022-12-04T07:03:05.845Z,79.22
2022-12-04T07:08:11.899Z,77.52
2022-12-04T07:13:16.063Z,75.73
2022-12-04T07:18:20.590Z,73.38
2022-12-04T07:23:25.995Z,72.65
2022-12-04T07:28:30.043Z,72.56
2022-12-04T07:33:34.825Z,72.60
2022-12-04T07:38:40.340Z,74.05
2022-12-04T07:43:44.977Z,71.43
2022-12-04T07:48:49.131Z,71.85
2022-12-04T07:54:02.014Z,69.86
2022-12-04T07:59:07.496Z,72.12
2022-12-04T08:04:13.009Z,74.01
2022-12-04T08:09:20.694Z,75.40
2022-12-04T08:14:25.702Z,77.43
2022-12-04T08:19:29.920Z,79.01
2022-12-04T08:24:35.863Z,80.40
2022-12-04T08:29:40.286Z,80.62
2022-12-04T08:34:44.363Z,79.91
2022-12-04T08:39:50.216Z,78.74
2022-12-04T08:44:54.453Z,78.55
2022-12-04T08:49:58.606Z,79.13
2022-12-04T08:55:03.999Z,78.96
2022-12-04T09:00:12.266Z,77.52
2022-12-04T09:05:16.301Z,77.36
2022-12-04T09:10:21.935Z,76.96
2022-12-04T09:15:26.447Z,74.82
2022-12-04T09:20:33.099Z,74.01
2022-12-04T09:25:39.124Z,73.42
2022-12-04T09:30:43.815Z,73.09
2022-12-04T09:35:48.673Z,72.97
2022-12-04T09:41:06.170Z,73.37
2022-12-04T09:46:17.024Z,73.52
2022-12-04T09:51:25.079Z,74.13
2022-12-04T09:56:32.259Z,75.17
2022-12-04T10:01:44.414Z,74.61
2022-12-04T10:06:55.645Z,74.54
2022-12-04T10:12:14.818Z,74.27
2022-12-04T10:17:41.393Z,74.96
2022-12-04T10:22:56.860Z,75.27
2022-12-04T10:28:13.557Z,75.50
2022-12-04T10:33:21.711Z,75.42
2022-12-04T10:38:35.553Z,75.51
2022-12-04T10:43:45.377Z,74.85
2022-12-04T10:48:52.211Z,75.21
2022-12-04T10:53:58.653Z,76.18
2022-12-04T10:59:06.568Z,76.16
2022-12-04T11:04:26.154Z,75.56
2022-12-04T11:09:31.269Z,75.04
2022-12-04T11:14:37.693Z,75.42
2022-12-04T11:19:41.661Z,75.93
2022-12-04T11:24:52.289Z,76.67
2022-12-04T11:29:58.606Z,76.19
2022-12-04T11:35:14.008Z,76.33
2022-12-04T11:40:20.074Z,76.20
2022-12-04T11:45:26.032Z,75.82
2022-12-04T11:50:44.205Z,74.71
2022-12-04T11:56:00.824Z,75.32
2022-12-04T12:01:21.328Z,75.81
2022-12-04T12:06:34.186Z,76.50
2022-12-04T12:11:47.672Z,76.69
2022-12-04T12:17:03.843Z,76.55
2022-12-04T12:22:18.061Z,76.07
2022-12-04T12:27:40.253Z,76.35
2022-12-04T12:32:59.322Z,76.17
2022-12-04T12:38:07.089Z,76.21
2022-12-04T12:43:16.926Z,76.24
2022-12-04T12:48:30.289Z,76.42
2022-12-04T12:53:41.176Z,77.17
2022-12-04T12:58:52.381Z,76.87
2022-12-04T13:04:06.855Z,77.03
2022-12-04T13:09:19.636Z,76.57
2022-12-04T13:14:36.146Z,76.61
2022-12-04T13:19:49.846Z,76.33
2022-12-04T13:25:28.036Z,76.67
2022-12-04T13:30:43.090Z,76.37
2022-12-04T13:36:17.096Z,76.73
2022-12-04T13:41:24.074Z,76.14
2022-12-04T13:46:34.398Z,75.52
2022-12-04T13:51:41.853Z,74.12
2022-12-04T13:56:58.200Z,74.75
2022-12-04T14:02:14.703Z,75.66
2022-12-04T14:07:33.137Z,76.29
2022-12-04T14:12:44.187Z,76.17
2022-12-04T14:18:03.301Z,77.34
2022-12-04T14:23:27.480Z,77.39
2022-12-04T14:28:57.622Z,77.48
2022-12-04T14:34:21.869Z,77.51
2022-12-04T14:39:36.049Z,77.86
2022-12-04T14:44:42.517Z,78.19
2022-12-04T14:50:04.148Z,78.44
2022-12-04T14:55:29.056Z,79.05
2022-12-04T15:00:41.908Z,79.81
2022-12-04T15:06:07.592Z,79.60
2022-12-04T15:11:38.729Z,80.77
2022-12-04T15:16:45.644Z,80.91
2022-12-04T15:21:50.532Z,79.31
2022-12-04T15:27:02.771Z,79.06
2022-12-04T15:32:13.730Z,79.60
2022-12-04T15:37:24.031Z,79.23
2022-12-04T15:42:31.540Z,79.51
2022-12-04T15:47:54.949Z,78.63
2022-12-04T15:53:11.213Z,77.97
2022-12-04T15:58:30.385Z,77.41
2022-12-04T16:03:48.352Z,77.85
2022-12-04T16:09:00.695Z,77.17
2022-12-04T16:14:20.363Z,76.71
2022-12-04T16:19:31.740Z,76.04
2022-12-04T16:24:35.833Z,77.75
2022-12-04T16:29:40.112Z,77.92
2022-12-04T16:34:45.636Z,77.76
2022-12-04T16:39:50.300Z,77.93
2022-12-04T16:44:55.082Z,77.24
2022-12-04T16:50:02.550Z,77.01
2022-12-04T16:55:17.520Z,77.05
2022-12-04T17:00:22.692Z,77.03
2022-12-04T17:05:30.579Z,76.38
2022-12-04T17:10:35.321Z,76.69
2022-12-04T17:15:39.752Z,76.49
2022-12-04T17:20:45.678Z,76.38
2022-12-04T17:25:50.067Z,76.54
2022-12-04T17:30:54.110Z,76.94
2022-12-04T17:36:00.450Z,77.73
2022-12-04T17:41:06.077Z,78.12
2022-12-04T17:46:11.354Z,77.57
2022-12-04T17:51:20.415Z,78.03
2022-12-04T17:56:25.981Z,77.88
2022-12-04T18:01:31.035Z,78.95
2022-12-04T18:06:39.469Z,78.19
2022-12-04T18:11:47.813Z,78.01
2022-12-04T18:16:54.832Z,77.92
2022-12-04T18:22:00.502Z,79.23
2022-12-04T18:27:05.402Z,79.37
2022-12-04T18:32:10.152Z,79.34
2022-12-04T18:37:16.975Z,79.43
2022-12-04T18:42:21.026Z,79.56
2022-12-04T18:47:26.914Z,80.03
2022-12-04T18:52:36.573Z,80.68
2022-12-04T18:57:40.561Z,80.41
2022-12-04T19:02:46.371Z,79.97
2022-12-04T19:07:54.257Z,80.90
2022-12-04T19:12:58.706Z,80.37
2022-12-04T19:18:04.113Z,79.67
2022-12-04T19:23:09.841Z,79.78
2022-12-04T19:28:14.124Z,80.89
2022-12-04T19:33:18.186Z,80.49
2022-12-04T19:38:23.799Z,79.96
2022-12-04T19:43:27.759Z,80.82
2022-12-04T19:48:32.277Z,81.16
2022-12-04T19:53:41.343Z,80.39
2022-12-04T19:58:45.813Z,80.80
2022-12-04T20:03:51.052Z,79.91
2022-12-04T20:08:58.099Z,81.38
2022-12-04T20:14:05.921Z,82.19
2022-12-04T20:19:14.552Z,81.25
2022-12-04T20:24:20.127Z,82.62
2022-12-04T20:29:24.589Z,82.04
2022-12-04T20:34:28.619Z,82.31
2022-12-04T20:39:35.129Z,82.38
2022-12-04T20:44:40.226Z,82.97
2022-12-04T20:49:44.182Z,84.48
2022-12-04T20:54:49.653Z,86.07
2022-12-04T20:59:55.738Z,86.84
2022-12-04T21:05:00.680Z,88.00
2022-12-04T21:10:09.733Z,88.88
2022-12-04T21:15:31.149Z,88.34
2022-12-04T21:20:35.137Z,86.69
2022-12-04T21:25:41.969Z,86.95
2022-12-04T21:30:46.934Z,87.13
2022-12-04T21:35:50.984Z,85.80
2022-12-04T21:40:56.465Z,84.83
2022-12-04T21:46:07.485Z,83.81
2022-12-04T21:51:39.793Z,84.49
2022-12-04T21:56:39.527Z,86.17
2022-12-04T22:01:47.830Z,86.34
2022-12-04T22:06:52.718Z,86.38
2022-12-04T22:11:58.841Z,86.16
2022-12-04T22:17:05.448Z,86.46
2022-12-04T22:22:11.794Z,86.94
2022-12-04T22:27:17.967Z,86.59
2022-12-04T22:32:22.057Z,87.39
2022-12-04T22:37:28.595Z,87.79
2022-12-04T22:42:34.229Z,87.68
2022-12-04T22:47:39.910Z,88.60
2022-12-04T22:52:43.964Z,88.19
2022-12-04T22:57:49.515Z,86.87
2022-12-04T23:02:53.627Z,86.45
2022-12-04T23:07:57.929Z,84.70
2022-12-04T23:13:04.392Z,83.73
2022-12-04T23:18:09.244Z,84.56
2022-12-04T23:23:14.684Z,85.44
2022-12-04T23:28:20.355Z,86.02
2022-12-04T23:33:24.662Z,85.56
2022-12-04T23:38:29.942Z,86.12
2022-12-04T23:43:36.560Z,87.03
2022-12-04T23:48:41.699Z,87.84
2022-12-04T23:53:46.295Z,87.28
2022-12-04T23:58:53.909Z,85.00
